This is the latest recevied weather packets stored in our database for station/object N3TTT-13. If no packets are shown the sender has not sent any weather packets the latest 1 day(s).
| Time | Temp. | Humidity | Pressure | Rain* | Wind** | Luminosity | Snow |
|---|---|---|---|---|---|---|---|
| 1778048264 | 19.44° C | 78% | 1011.6 hPa | 0 mm | 0.89 m/s, 214° | 0 W/m² | - |
| 1778047961 | 19.44° C | 78% | 1011.7 hPa | 0 mm | 0.89 m/s, 264° | 0 W/m² | - |
| 1778047660 | 19.44° C | 77% | 1011.4 hPa | 0 mm | 1.34 m/s, 201° | 0 W/m² | - |
| 1778047357 | 19.44° C | 78% | 1011.6 hPa | 0 mm | 0.45 m/s, 227° | 0 W/m² | - |
| 1778047054 | 19.44° C | 78% | 1011.5 hPa | 0 mm | 0.45 m/s, 247° | 0 W/m² | - |
| 1778046750 | 19.44° C | 77% | 1011.5 hPa | 0 mm | 1.34 m/s, 213° | 0 W/m² | - |
| 1778046447 | 19.44° C | 77% | 1011.5 hPa | 0 mm | 0 m/s | 0 W/m² | - |
| 1778046144 | 19.44° C | 77% | 1011.5 hPa | 0 mm | 0.89 m/s, 259° | 0 W/m² | - |
| 1778045841 | 20° C | 77% | 1011.6 hPa | 0 mm | 0.89 m/s, 217° | 0 W/m² | - |
| 1778045540 | 20° C | 76% | 1011.6 hPa | 0 mm | 0.89 m/s, 204° | 0 W/m² | - |
| 1778045237 | 20° C | 76% | 1011.7 hPa | 0 mm | 0.89 m/s, 216° | 0 W/m² | - |
| 1778044935 | 20° C | 76% | 1011.6 hPa | 0 mm | 0.89 m/s, 244° | 0 W/m² | - |
| 1778044633 | 20° C | 75% | 1011.7 hPa | 0 mm | 0 m/s | 0 W/m² | - |
| 1778044329 | 20.56° C | 75% | 1011.7 hPa | 0 mm | 0.89 m/s, 274° | 0 W/m² | - |
| 1778044027 | 20.56° C | 74% | 1011.7 hPa | 0 mm | 0 m/s | 0 W/m² | - |
| 1778043724 | 20.56° C | 74% | 1011.9 hPa | 0 mm | 0.89 m/s, 244° | 0 W/m² | - |
| 1778043420 | 20.56° C | 74% | 1012 hPa | 0 mm | 0.45 m/s, 256° | 0 W/m² | - |
| 1778043117 | 20.56° C | 74% | 1012.1 hPa | 0 mm | 0.89 m/s, 233° | 0 W/m² | - |
| 1778042815 | 20.56° C | 74% | 1012 hPa | 0 mm | 0.89 m/s, 237° | 0 W/m² | - |
| 1778042511 | 20.56° C | 74% | 1012 hPa | 0 mm | 0.89 m/s, 257° | 0 W/m² | - |
| 1778042209 | 20.56° C | 74% | 1012.1 hPa | 0 mm | 1.34 m/s, 174° | 0 W/m² | - |
| 1778041906 | 20.56° C | 74% | 1012.1 hPa | 0 mm | 0 m/s | 0 W/m² | - |
| 1778041606 | 20.56° C | 74% | 1012.1 hPa | 0 mm | 0.45 m/s, 240° | 0 W/m² | - |
| 1778041303 | 20.56° C | 74% | 1012 hPa | 0 mm | 2.24 m/s, 199° | 0 W/m² | - |
| 1778041001 | 20.56° C | 73% | 1012.2 hPa | 0 mm | 1.79 m/s, 133° | 0 W/m² | - |
* Rain latest hour (hover to see other rain measurements)
** Current wind speed in m/s (hover to see current wind gust speed)